createdAt,value
2019-05-02T00:01:27.633Z,5.60
2019-05-02T00:03:56.523Z,5.60
2019-05-02T00:06:24.817Z,5.70
2019-05-02T00:08:52.957Z,5.60
2019-05-02T00:11:21.082Z,5.70
2019-05-02T00:13:48.933Z,5.60
2019-05-02T00:16:16.911Z,5.60
2019-05-02T00:18:44.937Z,5.40
2019-05-02T00:21:12.669Z,5.40
2019-05-02T00:23:40.122Z,5.30
2019-05-02T00:26:07.745Z,5.20
2019-05-02T00:28:36.363Z,5.10
2019-05-02T00:31:07.583Z,5.00
2019-05-02T00:33:35.609Z,4.90
2019-05-02T00:36:03.617Z,4.80
2019-05-02T00:38:33.399Z,4.80
2019-05-02T00:41:02.184Z,4.70
2019-05-02T00:43:34.460Z,4.50
2019-05-02T00:46:00.975Z,4.40
2019-05-02T00:48:37.029Z,4.30
2019-05-02T00:51:04.665Z,4.30
2019-05-02T00:53:32.261Z,4.20
2019-05-02T00:55:59.777Z,4.30
2019-05-02T00:58:31.825Z,4.50
2019-05-02T01:03:58.984Z,4.40
2019-05-02T01:06:26.574Z,4.30
2019-05-02T01:08:54.311Z,4.20
2019-05-02T01:11:21.932Z,4.10
2019-05-02T01:13:50.454Z,4.10
2019-05-02T01:16:20.263Z,4.00
2019-05-02T01:18:47.967Z,4.00
2019-05-02T01:21:15.534Z,3.80
2019-05-02T01:23:44.255Z,3.70
2019-05-02T01:26:12.132Z,3.70
2019-05-02T01:28:57.862Z,3.90
2019-05-02T01:31:49.897Z,3.90
2019-05-02T01:34:36.992Z,3.80
2019-05-02T01:37:25.290Z,3.70
2019-05-02T01:39:52.849Z,3.70
2019-05-02T01:42:20.744Z,3.70
2019-05-02T01:44:48.339Z,3.60
2019-05-02T01:47:15.958Z,3.50
2019-05-02T01:49:43.826Z,3.50
2019-05-02T01:52:11.414Z,3.60
2019-05-02T01:54:40.788Z,3.70
2019-05-02T01:57:09.984Z,3.60
2019-05-02T02:02:45.824Z,3.50
2019-05-02T02:05:19.152Z,3.50
2019-05-02T02:07:50.794Z,3.60
2019-05-02T02:10:19.794Z,3.60
2019-05-02T02:13:02.828Z,3.60
2019-05-02T02:15:18.035Z,3.60
2019-05-02T02:17:46.758Z,3.50
2019-05-02T02:20:16.795Z,3.50
2019-05-02T02:23:15.260Z,3.60
2019-05-02T02:25:55.614Z,3.60
2019-05-02T02:28:23.360Z,3.50
2019-05-02T02:30:51.248Z,3.30
2019-05-02T02:33:19.107Z,3.20
2019-05-02T02:35:50.482Z,3.10
2019-05-02T02:38:16.351Z,3.10
2019-05-02T02:40:43.864Z,3.10
2019-05-02T02:43:32.353Z,3.10
2019-05-02T02:46:02.207Z,3.20
2019-05-02T02:48:34.059Z,3.20
2019-05-02T02:50:59.940Z,3.20
2019-05-02T02:53:30.595Z,3.20
2019-05-02T02:56:03.868Z,3.20
2019-05-02T02:58:31.454Z,3.20
2019-05-02T03:00:59.111Z,3.20
2019-05-02T03:03:30.607Z,3.30
2019-05-02T03:06:05.258Z,3.30
2019-05-02T03:08:28.308Z,3.10
2019-05-02T03:10:56.353Z,3.00
2019-05-02T03:13:52.417Z,3.00
2019-05-02T03:16:16.046Z,3.00
2019-05-02T03:18:44.833Z,3.10
2019-05-02T03:21:19.618Z,3.20
2019-05-02T03:23:42.540Z,3.20
2019-05-02T03:26:15.176Z,3.20
2019-05-02T03:28:40.524Z,3.20
2019-05-02T03:31:24.026Z,3.20
2019-05-02T03:33:52.241Z,3.30
2019-05-02T03:36:26.125Z,3.30
2019-05-02T03:38:37.186Z,3.30
2019-05-02T03:41:05.035Z,3.40
2019-05-02T03:43:32.789Z,3.50
2019-05-02T03:46:00.835Z,3.40
2019-05-02T03:48:28.441Z,3.50
2019-05-02T03:50:56.169Z,3.60
2019-05-02T03:53:25.602Z,3.50
2019-05-02T03:55:54.326Z,3.50
2019-05-02T03:58:22.647Z,3.40
2019-05-02T04:01:00.302Z,3.40
2019-05-02T04:06:29.312Z,3.50
2019-05-02T04:08:59.774Z,3.60
2019-05-02T04:11:38.304Z,3.70
2019-05-02T04:16:41.682Z,3.80
2019-05-02T04:19:09.746Z,3.90
2019-05-02T04:21:37.658Z,4.00
2019-05-02T04:24:15.046Z,4.00
2019-05-02T04:26:36.206Z,4.10
2019-05-02T04:29:04.055Z,4.10
2019-05-02T04:31:33.582Z,4.20
2019-05-02T04:34:01.433Z,4.20
2019-05-02T04:36:29.348Z,4.10
2019-05-02T04:38:59.594Z,4.10
2019-05-02T04:41:31.778Z,4.10
2019-05-02T04:44:01.162Z,4.10
2019-05-02T04:46:30.948Z,4.10
2019-05-02T04:48:58.765Z,4.20
2019-05-02T04:51:27.816Z,4.40
2019-05-02T04:53:54.911Z,4.60
2019-05-02T04:56:22.853Z,4.70
2019-05-02T04:58:50.867Z,4.90
2019-05-02T05:01:21.047Z,5.10
2019-05-02T05:03:49.269Z,5.40
2019-05-02T05:06:18.824Z,5.60
2019-05-02T05:08:48.285Z,5.80
2019-05-02T05:11:20.727Z,6.10
2019-05-02T05:13:47.830Z,6.20
2019-05-02T05:16:15.850Z,6.40
2019-05-02T05:18:49.432Z,6.50
2019-05-02T05:21:14.570Z,6.60
2019-05-02T05:24:01.983Z,6.70
2019-05-02T05:26:33.960Z,6.70
2019-05-02T05:29:01.209Z,6.80
2019-05-02T05:31:33.159Z,6.90
2019-05-02T05:34:00.894Z,6.90
2019-05-02T05:36:32.509Z,6.90
2019-05-02T05:38:58.631Z,7.10
2019-05-02T05:41:28.074Z,7.40
2019-05-02T05:43:57.331Z,7.50
2019-05-02T05:46:25.191Z,7.60
2019-05-02T05:48:57.821Z,7.70
2019-05-02T05:51:27.233Z,7.70
2019-05-02T05:53:59.071Z,7.90
2019-05-02T05:56:27.349Z,8.00
2019-05-02T05:58:58.937Z,8.20
2019-05-02T06:01:34.110Z,8.30
2019-05-02T06:03:58.038Z,8.50
2019-05-02T06:06:27.451Z,8.50
2019-05-02T06:08:55.520Z,8.60
2019-05-02T06:11:23.536Z,8.70
2019-05-02T06:13:51.230Z,8.70
2019-05-02T06:16:18.917Z,8.80
2019-05-02T06:18:46.874Z,8.90
2019-05-02T06:21:17.085Z,9.00
2019-05-02T06:23:44.346Z,9.10
2019-05-02T06:26:13.409Z,9.20
2019-05-02T06:28:43.400Z,9.20
2019-05-02T06:31:11.056Z,9.30
2019-05-02T06:33:39.096Z,9.40
2019-05-02T06:36:06.748Z,9.40
2019-05-02T06:41:51.973Z,9.50
2019-05-02T06:44:24.121Z,9.60
2019-05-02T06:46:50.547Z,9.70
2019-05-02T06:49:18.160Z,9.80
2019-05-02T06:51:45.731Z,9.90
2019-05-02T06:54:13.256Z,10.00
2019-05-02T06:56:43.162Z,10.10
2019-05-02T06:59:13.148Z,10.20
2019-05-02T07:01:39.904Z,10.40
2019-05-02T07:04:07.776Z,10.50
2019-05-02T07:06:56.112Z,10.60
2019-05-02T07:09:05.665Z,10.70
2019-05-02T07:11:38.303Z,10.80
2019-05-02T07:14:13.174Z,10.80
2019-05-02T07:16:38.949Z,10.80
2019-05-02T07:19:27.217Z,10.90
2019-05-02T07:21:53.033Z,10.90
2019-05-02T07:24:25.238Z,10.80
2019-05-02T07:26:52.174Z,10.90
2019-05-02T07:29:21.894Z,11.00
2019-05-02T07:31:53.296Z,11.10
2019-05-02T07:34:19.750Z,11.30
2019-05-02T07:36:47.623Z,11.20
2019-05-02T07:39:15.546Z,11.30
2019-05-02T07:41:43.559Z,11.30
2019-05-02T07:44:11.168Z,11.40
2019-05-02T07:46:51.217Z,11.40
2019-05-02T07:49:08.530Z,11.40
2019-05-02T07:51:36.209Z,11.30
2019-05-02T07:54:04.073Z,11.40
2019-05-02T07:56:32.114Z,11.40
2019-05-02T07:58:59.727Z,11.40
2019-05-02T08:01:27.374Z,11.50
2019-05-02T08:03:55.053Z,11.50
2019-05-02T08:06:34.686Z,11.50
2019-05-02T08:08:52.353Z,11.50
2019-05-02T08:11:19.949Z,11.60
2019-05-02T08:13:49.503Z,11.80
2019-05-02T08:16:16.969Z,12.00
2019-05-02T08:18:44.813Z,12.20
2019-05-02T08:21:12.465Z,12.30
2019-05-02T08:23:40.055Z,12.50
2019-05-02T08:26:07.673Z,12.70
2019-05-02T08:28:51.988Z,12.70
2019-05-02T08:31:18.991Z,12.70
2019-05-02T08:33:47.231Z,12.50
2019-05-02T08:36:14.759Z,12.40
2019-05-02T08:38:42.575Z,12.40
2019-05-02T08:41:10.183Z,12.40
2019-05-02T08:43:40.180Z,12.30
2019-05-02T08:46:09.341Z,12.30
2019-05-02T08:48:41.890Z,12.30
2019-05-02T08:51:06.363Z,12.40
2019-05-02T08:53:34.190Z,12.30
2019-05-02T08:56:01.743Z,12.30
2019-05-02T08:58:29.311Z,12.30
2019-05-02T09:00:56.947Z,12.40
2019-05-02T09:03:28.614Z,12.50
2019-05-02T09:06:05.624Z,12.60
2019-05-02T09:11:14.312Z,12.80
2019-05-02T09:13:46.030Z,13.10
2019-05-02T09:16:13.289Z,13.40
2019-05-02T09:18:50.026Z,13.60
2019-05-02T09:21:12.466Z,13.80
2019-05-02T09:23:42.002Z,13.90
2019-05-02T09:26:11.812Z,13.80
2019-05-02T09:28:39.375Z,13.60
2019-05-02T09:31:07.140Z,13.30
2019-05-02T09:33:36.855Z,13.00
2019-05-02T09:36:04.270Z,12.80
2019-05-02T09:38:32.887Z,12.70
2019-05-02T09:41:15.140Z,12.70
2019-05-02T09:43:37.478Z,12.80
2019-05-02T09:46:02.431Z,13.00
2019-05-02T09:48:29.647Z,13.20
2019-05-02T09:50:58.054Z,13.40
2019-05-02T09:53:26.557Z,13.70
2019-05-02T09:55:57.728Z,13.90
2019-05-02T09:58:24.148Z,14.00
2019-05-02T10:01:04.251Z,14.10
2019-05-02T10:03:32.138Z,14.20
2019-05-02T10:05:59.731Z,14.00
2019-05-02T10:08:27.663Z,13.80
2019-05-02T10:10:55.582Z,13.70
2019-05-02T10:13:23.505Z,13.50
2019-05-02T10:18:36.846Z,12.80
2019-05-02T10:21:07.939Z,12.50
2019-05-02T10:23:34.128Z,12.60
2019-05-02T10:26:02.877Z,12.90
2019-05-02T10:28:31.804Z,13.00
2019-05-02T10:30:59.680Z,13.10
2019-05-02T10:33:27.946Z,13.40
2019-05-02T10:35:57.559Z,13.20
2019-05-02T10:38:25.368Z,13.40
2019-05-02T10:40:54.589Z,13.40
2019-05-02T10:43:22.937Z,13.40
2019-05-02T10:45:56.637Z,13.50
2019-05-02T10:48:28.172Z,13.60
2019-05-02T10:50:58.086Z,13.40
2019-05-02T10:53:26.035Z,13.50
2019-05-02T10:55:53.762Z,13.50
2019-05-02T10:58:25.844Z,13.20
2019-05-02T11:00:52.315Z,12.90
2019-05-02T11:03:33.219Z,12.80
2019-05-02T11:06:05.525Z,12.60
2019-05-02T11:08:32.091Z,12.40
2019-05-02T11:11:01.993Z,12.30
2019-05-02T11:14:08.053Z,12.20
2019-05-02T11:16:56.923Z,12.20
2019-05-02T11:19:48.277Z,12.30
2019-05-02T11:22:16.034Z,12.40
2019-05-02T11:24:43.847Z,12.50
2019-05-02T11:27:12.844Z,12.60
2019-05-02T11:29:42.465Z,12.60
2019-05-02T11:32:10.386Z,12.40
2019-05-02T11:34:38.743Z,12.30
2019-05-02T11:37:06.374Z,12.30
2019-05-02T11:39:44.025Z,12.20
2019-05-02T11:42:03.804Z,12.20
2019-05-02T11:44:32.655Z,12.30
2019-05-02T11:47:02.073Z,12.40
2019-05-02T11:49:31.818Z,12.40
2019-05-02T11:52:01.573Z,12.50
2019-05-02T11:54:28.911Z,12.70
2019-05-02T11:56:56.542Z,12.80
2019-05-02T11:59:27.840Z,12.80
2019-05-02T12:02:17.492Z,12.80
2019-05-02T12:04:41.782Z,12.70
2019-05-02T12:07:09.438Z,12.70
2019-05-02T12:09:37.046Z,12.80
2019-05-02T12:12:04.939Z,12.90
2019-05-02T12:14:36.214Z,13.00
2019-05-02T12:17:02.598Z,13.20
2019-05-02T12:19:32.331Z,13.30
2019-05-02T12:22:02.615Z,13.40
2019-05-02T12:24:31.869Z,13.60
2019-05-02T12:27:00.006Z,13.80
2019-05-02T12:29:27.960Z,13.70
2019-05-02T12:31:56.482Z,13.60
2019-05-02T12:34:24.605Z,13.30
2019-05-02T12:36:52.979Z,13.20
2019-05-02T12:39:22.140Z,13.40
2019-05-02T12:41:50.514Z,13.40
2019-05-02T12:44:22.181Z,13.40
2019-05-02T12:46:51.779Z,13.20
2019-05-02T12:49:25.329Z,13.20
2019-05-02T12:51:49.782Z,13.20
2019-05-02T12:54:18.058Z,13.00
2019-05-02T12:56:46.956Z,13.00
2019-05-02T12:59:15.041Z,13.00
2019-05-02T13:01:44.013Z,13.00
2019-05-02T13:04:13.698Z,12.90
2019-05-02T13:06:42.484Z,12.70
2019-05-02T13:09:13.030Z,12.70
2019-05-02T13:12:02.849Z,12.70
2019-05-02T13:14:32.148Z,12.90
2019-05-02T13:17:05.274Z,13.00
2019-05-02T13:19:40.203Z,13.10
2019-05-02T13:22:32.371Z,13.40
2019-05-02T13:25:03.995Z,13.40
2019-05-02T13:27:43.549Z,13.40
2019-05-02T13:30:07.427Z,13.60
2019-05-02T13:32:42.526Z,13.90
2019-05-02T13:35:32.363Z,14.20
2019-05-02T13:38:04.107Z,14.50
2019-05-02T13:40:41.651Z,14.30
2019-05-02T13:43:09.825Z,14.60
2019-05-02T13:45:44.880Z,15.20
2019-05-02T13:48:13.898Z,15.30
2019-05-02T13:50:42.441Z,15.40
2019-05-02T13:53:12.153Z,15.10
2019-05-02T13:55:45.411Z,14.70
2019-05-02T13:58:14.409Z,14.20
2019-05-02T14:00:46.586Z,13.90
2019-05-02T14:03:15.321Z,13.90
2019-05-02T14:05:50.894Z,14.10
2019-05-02T14:08:37.156Z,14.20
2019-05-02T14:11:23.291Z,14.10
2019-05-02T14:13:52.735Z,13.80
2019-05-02T14:16:22.148Z,13.80
2019-05-02T14:18:50.503Z,13.90
2019-05-02T14:21:18.605Z,14.00
2019-05-02T14:23:47.224Z,14.00
2019-05-02T14:26:27.442Z,13.90
2019-05-02T14:28:45.679Z,13.80
2019-05-02T14:31:13.711Z,13.80
2019-05-02T14:33:43.823Z,14.00
2019-05-02T14:36:12.366Z,14.00
2019-05-02T14:38:41.678Z,14.20
2019-05-02T14:41:12.438Z,14.20
2019-05-02T14:43:54.113Z,14.00
2019-05-02T14:46:28.994Z,14.30
2019-05-02T14:48:54.814Z,15.00
2019-05-02T14:53:05.298Z,15.50
2019-05-02T14:55:36.504Z,16.10
2019-05-02T14:58:05.931Z,16.70
2019-05-02T15:00:47.772Z,15.90
2019-05-02T15:03:13.108Z,15.20
2019-05-02T15:05:42.530Z,14.40
2019-05-02T15:08:11.827Z,14.40
2019-05-02T15:10:50.795Z,14.30
2019-05-02T15:13:12.472Z,14.20
2019-05-02T15:15:43.359Z,14.20
2019-05-02T15:18:15.853Z,14.20
2019-05-02T15:20:44.397Z,14.60
2019-05-02T15:23:19.360Z,14.60
2019-05-02T15:25:47.194Z,14.60
2019-05-02T15:28:18.758Z,15.10
2019-05-02T15:30:52.254Z,15.20
2019-05-02T15:33:22.551Z,15.50
2019-05-02T15:35:57.316Z,15.80
2019-05-02T15:38:28.321Z,15.70
2019-05-02T15:40:59.421Z,15.60
2019-05-02T15:43:27.303Z,15.30
2019-05-02T15:45:56.893Z,15.00
2019-05-02T15:48:27.457Z,15.40
2019-05-02T15:51:00.056Z,15.20
2019-05-02T15:53:44.757Z,14.80
2019-05-02T15:56:18.620Z,14.50
2019-05-02T15:58:39.929Z,15.10
2019-05-02T16:01:32.123Z,15.90
2019-05-02T16:04:02.516Z,16.10
2019-05-02T16:06:33.769Z,15.60
2019-05-02T16:09:02.428Z,15.10
2019-05-02T16:11:32.227Z,14.80
2019-05-02T16:14:02.057Z,14.50
2019-05-02T16:16:32.074Z,14.50
2019-05-02T16:19:02.209Z,14.80
2019-05-02T16:21:42.614Z,15.30
2019-05-02T16:24:23.268Z,15.20
2019-05-02T16:26:56.411Z,15.20
2019-05-02T16:29:28.143Z,15.20
2019-05-02T16:32:05.188Z,15.00
2019-05-02T16:34:35.450Z,15.00
2019-05-02T16:37:13.294Z,14.80
2019-05-02T16:39:42.612Z,14.60
2019-05-02T16:42:12.530Z,14.60
2019-05-02T16:44:42.934Z,14.70
2019-05-02T16:47:13.654Z,14.60
2019-05-02T16:49:41.860Z,14.30
2019-05-02T16:52:12.591Z,14.30
2019-05-02T16:54:42.150Z,14.50
2019-05-02T16:57:12.582Z,15.00
2019-05-02T16:59:42.604Z,14.80
2019-05-02T17:02:12.161Z,14.50
2019-05-02T17:04:42.711Z,14.20
2019-05-02T17:07:16.743Z,14.10
2019-05-02T17:10:19.470Z,14.00
2019-05-02T17:12:52.850Z,13.90
2019-05-02T17:15:35.377Z,13.90
2019-05-02T17:18:12.761Z,13.90
2019-05-02T17:20:36.071Z,13.80
2019-05-02T17:23:07.655Z,13.60
2019-05-02T17:25:35.644Z,13.40
2019-05-02T17:28:09.762Z,13.30
2019-05-02T17:30:38.921Z,13.10
2019-05-02T17:33:11.504Z,12.90
2019-05-02T17:35:35.303Z,12.80
2019-05-02T17:38:04.417Z,12.60
2019-05-02T17:40:33.009Z,12.50
2019-05-02T17:43:06.582Z,12.40
2019-05-02T17:45:38.065Z,12.30
2019-05-02T17:48:10.307Z,12.20
2019-05-02T17:51:00.140Z,12.00
2019-05-02T17:53:33.554Z,11.90
2019-05-02T17:56:01.905Z,11.80
2019-05-02T17:58:31.799Z,11.70
2019-05-02T18:01:02.599Z,11.60
2019-05-02T18:03:34.970Z,11.50
2019-05-02T18:06:02.657Z,11.40
2019-05-02T18:08:32.282Z,11.40
2019-05-02T18:11:02.756Z,11.30
2019-05-02T18:13:33.804Z,11.20
2019-05-02T18:16:02.775Z,11.10
2019-05-02T18:18:31.996Z,11.10
2019-05-02T18:21:02.074Z,11.00
2019-05-02T18:23:32.282Z,10.90
2019-05-02T18:26:02.758Z,10.90
2019-05-02T18:28:31.121Z,10.80
2019-05-02T18:31:02.621Z,10.70
2019-05-02T18:33:30.338Z,10.70
2019-05-02T18:35:58.664Z,10.70
2019-05-02T18:38:28.254Z,10.70
2019-05-02T18:41:00.494Z,10.70
2019-05-02T18:43:27.407Z,10.70
2019-05-02T18:45:58.075Z,10.60
2019-05-02T18:48:27.398Z,10.50
2019-05-02T18:50:55.930Z,10.50
2019-05-02T18:53:27.286Z,10.50
2019-05-02T18:56:01.488Z,10.40
2019-05-02T18:58:28.636Z,10.40
2019-05-02T19:01:00.872Z,10.30
2019-05-02T19:03:29.759Z,10.20
2019-05-02T19:05:58.635Z,10.10
2019-05-02T19:08:38.725Z,10.10
2019-05-02T19:11:11.389Z,10.00
2019-05-02T19:13:37.524Z,9.90
2019-05-02T19:16:13.498Z,9.90
2019-05-02T19:18:42.632Z,9.90
2019-05-02T19:21:13.557Z,9.80
2019-05-02T19:23:42.603Z,9.70
2019-05-02T19:26:18.637Z,9.60
2019-05-02T19:29:02.499Z,9.40
2019-05-02T19:31:44.307Z,9.30
2019-05-02T19:34:09.307Z,9.10
2019-05-02T19:36:37.864Z,9.00
2019-05-02T19:39:09.913Z,8.80
2019-05-02T19:41:38.967Z,8.70
2019-05-02T19:44:09.260Z,8.60
2019-05-02T19:46:39.108Z,8.60
2019-05-02T19:49:16.401Z,8.60
2019-05-02T19:51:56.471Z,8.60
2019-05-02T19:54:26.072Z,8.80
2019-05-02T19:56:56.464Z,8.70
2019-05-02T19:59:26.839Z,8.70
2019-05-02T20:01:57.037Z,8.80
2019-05-02T20:04:28.838Z,8.80
2019-05-02T20:06:57.546Z,8.80
2019-05-02T20:09:26.284Z,8.80
2019-05-02T20:11:55.260Z,8.70
2019-05-02T20:14:23.586Z,8.60
2019-05-02T20:16:53.890Z,8.60
2019-05-02T20:19:26.815Z,8.50
2019-05-02T20:22:14.737Z,8.50
2019-05-02T20:24:55.478Z,8.50
2019-05-02T20:27:22.293Z,8.40
2019-05-02T20:29:52.085Z,8.40
2019-05-02T20:32:22.073Z,8.30
2019-05-02T20:34:50.760Z,8.30
2019-05-02T20:37:19.015Z,8.20
2019-05-02T20:39:47.689Z,8.20
2019-05-02T20:42:16.454Z,8.10
2019-05-02T20:44:44.975Z,8.10
2019-05-02T20:47:17.775Z,8.00
2019-05-02T20:49:46.299Z,8.10
2019-05-02T20:52:14.738Z,8.30
2019-05-02T20:54:44.096Z,8.30
2019-05-02T20:57:12.488Z,8.20
2019-05-02T20:59:41.749Z,8.10
2019-05-02T21:02:12.069Z,7.90
2019-05-02T21:04:42.857Z,7.70
2019-05-02T21:07:43.193Z,7.50
2019-05-02T21:10:38.048Z,7.40
2019-05-02T21:13:07.182Z,7.30
2019-05-02T21:15:35.456Z,7.20
2019-05-02T21:18:03.719Z,7.00
2019-05-02T21:20:32.511Z,7.00
2019-05-02T21:23:02.014Z,6.90
2019-05-02T21:25:32.420Z,6.90
2019-05-02T21:28:00.263Z,7.00
2019-05-02T21:30:32.128Z,7.00
2019-05-02T21:33:02.616Z,7.20
2019-05-02T21:35:31.937Z,7.30
2019-05-02T21:38:00.547Z,7.50
2019-05-02T21:40:29.026Z,7.70
2019-05-02T21:42:57.872Z,7.90
2019-05-02T21:45:25.991Z,8.10
2019-05-02T21:47:55.014Z,8.20
2019-05-02T21:50:49.378Z,8.30
2019-05-02T21:53:32.723Z,8.40
2019-05-02T21:56:21.614Z,8.40
2019-05-02T21:59:06.216Z,8.40
2019-05-02T22:01:42.335Z,8.30
2019-05-02T22:04:13.083Z,8.30
2019-05-02T22:06:44.774Z,8.20
2019-05-02T22:09:14.526Z,8.10
2019-05-02T22:11:43.295Z,8.00
2019-05-02T22:14:13.264Z,7.90
2019-05-02T22:16:42.595Z,7.80
2019-05-02T22:19:11.475Z,7.70
2019-05-02T22:21:42.912Z,7.60
2019-05-02T22:24:14.322Z,7.50
2019-05-02T22:26:45.088Z,7.40
2019-05-02T22:29:13.678Z,7.40
2019-05-02T22:31:43.012Z,7.40
2019-05-02T22:34:12.883Z,7.50
2019-05-02T22:36:41.930Z,7.60
2019-05-02T22:39:33.366Z,7.80
2019-05-02T22:42:04.621Z,8.00
2019-05-02T22:44:33.246Z,8.20
2019-05-02T22:47:02.104Z,8.30
2019-05-02T22:49:31.888Z,8.50
2019-05-02T22:52:01.004Z,8.60
2019-05-02T22:54:33.599Z,8.70
2019-05-02T22:57:02.560Z,8.80
2019-05-02T22:59:31.807Z,8.80
2019-05-02T23:02:02.190Z,8.90
2019-05-02T23:04:32.488Z,8.90
2019-05-02T23:07:02.334Z,8.80
2019-05-02T23:09:30.749Z,8.80
2019-05-02T23:11:58.821Z,8.80
2019-05-02T23:14:27.521Z,8.70
2019-05-02T23:16:55.712Z,8.60
2019-05-02T23:19:23.776Z,8.50
2019-05-02T23:21:52.763Z,8.40
2019-05-02T23:24:39.100Z,8.30
2019-05-02T23:27:19.090Z,8.20
2019-05-02T23:29:47.375Z,8.10
2019-05-02T23:32:16.000Z,8.10
2019-05-02T23:34:44.565Z,8.00
2019-05-02T23:37:12.605Z,8.10
2019-05-02T23:39:41.790Z,8.10
2019-05-02T23:42:10.318Z,8.10
2019-05-02T23:44:38.558Z,8.20
2019-05-02T23:47:06.842Z,8.40
2019-05-02T23:49:35.111Z,8.40
2019-05-02T23:52:03.311Z,8.50
2019-05-02T23:54:32.461Z,8.60
2019-05-02T23:57:00.758Z,8.60
2019-05-02T23:59:29.197Z,8.60
